METAR Data
IDs: Format: Raw Decoded Include TAF

Data at: 0240 UTC 25 Feb 2021

LHDC 250222Z AUTO 13003KT 1500 BR NCD 02/02 Q1035